Time;durP1;ratioP1;P1;durP2;ratioP2;P2;SDS_P1;SDS_P2;PMS_P1;PMS_P2;Temp;Humidity;BMP_temperature;BMP_pressure;BME280_temperature;BME280_humidity;BME280_pressure;Samples;Min_cycle;Max_cycle;Signal;HPM_P1;HPM_P2
2023/12/29 00:00:45;;;;;;;5.75;1.00;;;13.20;99.90;;;;;;5033665;28;20164;-22
2023/12/29 00:03:11;;;;;;;4.70;1.00;;;13.30;99.90;;;;;;5037647;28;20045;-21
2023/12/29 00:05:37;;;;;;;5.90;1.30;;;13.30;99.90;;;;;;5041498;28;20324;-21
2023/12/29 00:08:02;;;;;;;8.02;1.83;;;13.30;99.90;;;;;;5036097;28;20032;-21
2023/12/29 00:10:28;;;;;;;4.20;1.10;;;13.30;99.90;;;;;;5039554;28;20021;-20
2023/12/29 00:12:54;;;;;;;6.20;1.20;;;13.20;99.90;;;;;;5039867;28;20040;-22
2023/12/29 00:15:20;;;;;;;3.43;0.90;;;13.30;99.90;;;;;;5040112;28;20159;-21
2023/12/29 00:17:46;;;;;;;3.63;0.90;;;13.30;99.90;;;;;;5043250;28;20321;-20
2023/12/29 00:20:12;;;;;;;5.32;0.82;;;13.20;99.90;;;;;;5033860;28;20098;-20
2023/12/29 00:22:38;;;;;;;3.07;0.90;;;13.20;99.90;;;;;;5034370;28;20572;-21
2023/12/29 00:25:04;;;;;;;3.25;1.10;;;13.20;99.90;;;;;;5036183;28;20510;-21
2023/12/29 00:27:29;;;;;;;8.40;1.52;;;13.20;99.90;;;;;;5025631;28;20116;-26
2023/12/29 00:29:55;;;;;;;3.10;0.80;;;13.20;99.90;;;;;;5036867;28;20131;-30
2023/12/29 00:32:21;;;;;;;5.22;0.90;;;13.20;99.90;;;;;;5036585;28;20022;-28
2023/12/29 00:34:47;;;;;;;6.97;1.30;;;13.20;99.90;;;;;;5036163;28;20029;-25
2023/12/29 00:37:12;;;;;;;2.78;0.80;;;13.20;99.90;;;;;;5037905;28;20403;-23
2023/12/29 00:39:38;;;;;;;3.93;0.90;;;13.20;99.90;;;;;;5023678;28;20037;-24
2023/12/29 00:42:07;;;;;;;2.95;0.82;;;13.20;99.90;;;;;;5037569;28;20021;-23
2023/12/29 00:44:33;;;;;;;3.70;1.00;;;13.20;99.90;;;;;;5018617;28;20395;-24
2023/12/29 00:47:00;;;;;;;4.07;1.00;;;13.20;99.90;;;;;;5041128;28;20539;-27
2023/12/29 00:49:26;;;;;;;4.75;1.20;;;13.20;99.90;;;;;;5036434;28;20545;-23
2023/12/29 00:51:52;;;;;;;2.00;0.70;;;13.20;99.90;;;;;;5041191;28;20120;-24
2023/12/29 00:54:18;;;;;;;4.10;0.90;;;13.20;99.90;;;;;;5023507;28;20407;-25
2023/12/29 00:56:51;;;;;;;5.60;1.38;;;13.10;99.90;;;;;;5038197;28;20029;-25
2023/12/29 00:59:18;;;;;;;5.50;1.20;;;13.10;99.90;;;;;;5032219;28;20063;-24
2023/12/29 01:01:44;;;;;;;3.95;1.00;;;13.10;99.90;;;;;;5036483;28;20077;-24
2023/12/29 01:04:10;;;;;;;3.35;1.00;;;13.00;99.90;;;;;;5034629;28;20534;-24
2023/12/29 01:06:35;;;;;;;4.93;1.10;;;13.00;99.90;;;;;;5004049;28;20056;-23
2023/12/29 01:09:01;;;;;;;4.10;1.52;;;13.00;99.90;;;;;;5036514;28;20041;-23
2023/12/29 01:11:27;;;;;;;6.60;1.00;;;13.00;99.90;;;;;;5035401;28;20026;-24
2023/12/29 01:13:53;;;;;;;4.93;0.85;;;13.00;99.90;;;;;;5034651;28;20029;-24
2023/12/29 01:16:18;;;;;;;3.03;0.80;;;13.00;99.90;;;;;;5036522;28;20036;-25
2023/12/29 01:18:44;;;;;;;3.70;0.98;;;13.00;99.90;;;;;;5034652;28;20033;-24
2023/12/29 01:21:10;;;;;;;5.83;1.17;;;13.00;99.90;;;;;;5040825;28;20536;-23
2023/12/29 01:23:36;;;;;;;4.55;0.90;;;13.00;99.90;;;;;;5037569;28;20108;-23
2023/12/29 01:26:02;;;;;;;3.47;0.83;;;13.00;99.90;;;;;;5032936;28;20138;-25
2023/12/29 01:28:28;;;;;;;4.07;0.80;;;13.00;99.90;;;;;;5035161;28;20403;-26
2023/12/29 01:30:53;;;;;;;6.00;1.10;;;13.00;99.90;;;;;;5036617;28;20113;-27
2023/12/29 01:33:21;;;;;;;6.85;0.95;;;13.00;99.90;;;;;;5037572;28;20037;-25
2023/12/29 01:35:47;;;;;;;6.47;1.13;;;13.00;99.90;;;;;;5049660;28;20029;-28
2023/12/29 01:38:12;;;;;;;5.27;1.10;;;13.00;99.90;;;;;;5037489;28;20044;-24
2023/12/29 01:40:47;;;;;;;4.00;0.90;;;13.00;99.90;;;;;;5034019;28;20041;-30
2023/12/29 01:43:13;;;;;;;3.37;0.80;;;13.00;99.90;;;;;;5032857;28;20026;-24
2023/12/29 01:45:39;;;;;;;2.47;0.90;;;13.10;99.90;;;;;;5022349;28;20031;-30
2023/12/29 01:48:05;;;;;;;3.00;1.10;;;13.10;99.90;;;;;;5033847;28;20025;-27
2023/12/29 01:50:32;;;;;;;3.23;0.80;;;13.00;99.90;;;;;;5034309;28;20483;-30
2023/12/29 01:52:58;;;;;;;3.78;1.20;;;13.10;99.90;;;;;;5036094;28;20503;-23
2023/12/29 01:55:26;;;;;;;3.55;1.17;;;13.10;99.90;;;;;;5022891;28;20041;-28
2023/12/29 01:57:52;;;;;;;2.22;0.90;;;13.10;99.90;;;;;;5032600;28;20040;-25
2023/12/29 02:00:19;;;;;;;3.08;0.73;;;13.10;99.90;;;;;;5035035;28;20058;-27
2023/12/29 02:02:46;;;;;;;3.40;1.10;;;13.10;99.90;;;;;;5033405;28;20029;-29
2023/12/29 02:05:16;;;;;;;4.63;1.00;;;13.10;99.90;;;;;;5034352;28;20020;-26
2023/12/29 02:07:42;;;;;;;4.15;0.95;;;13.10;99.90;;;;;;5036405;28;20425;-24
2023/12/29 02:10:13;;;;;;;5.97;1.40;;;13.10;99.90;;;;;;5035359;28;20051;-24
2023/12/29 02:12:39;;;;;;;4.97;1.10;;;13.10;99.90;;;;;;5035480;28;20048;-29
2023/12/29 02:15:06;;;;;;;1.93;0.90;;;13.10;99.90;;;;;;5034901;28;20380;-25
2023/12/29 02:17:39;;;;;;;3.33;1.00;;;13.10;99.90;;;;;;5039870;28;20450;-25
2023/12/29 02:20:07;;;;;;;6.05;1.42;;;13.10;99.90;;;;;;5032717;28;20040;-25
2023/12/29 02:22:32;;;;;;;7.15;1.23;;;13.10;99.90;;;;;;5035805;28;20055;-24
2023/12/29 02:24:58;;;;;;;2.77;1.10;;;13.10;99.90;;;;;;5031328;28;20475;-25
2023/12/29 02:27:48;;;;;;;5.57;1.05;;;13.00;99.90;;;;;;5035804;28;20036;-25
2023/12/29 02:30:26;;;;;;;4.38;0.98;;;13.10;99.90;;;;;;5034776;28;20037;-28
2023/12/29 02:32:57;;;;;;;2.92;1.10;;;13.10;99.90;;;;;;5037830;28;20045;-26
2023/12/29 02:35:28;;;;;;;4.70;1.13;;;13.10;99.90;;;;;;5035382;28;20041;-27
2023/12/29 02:37:57;;;;;;;4.57;1.02;;;13.10;99.90;;;;;;5033168;28;20036;-24
2023/12/29 02:40:25;;;;;;;2.78;0.98;;;13.10;99.90;;;;;;5033775;28;20482;-24
2023/12/29 02:42:50;;;;;;;5.07;1.33;;;13.10;99.90;;;;;;5035761;28;20029;-30
2023/12/29 02:45:17;;;;;;;6.57;1.37;;;13.10;99.90;;;;;;5018582;28;20376;-25
2023/12/29 02:47:43;;;;;;;4.82;0.98;;;13.10;99.90;;;;;;5041137;28;20033;-27
2023/12/29 02:50:10;;;;;;;6.53;1.40;;;13.10;99.90;;;;;;5035265;28;20033;-23
2023/12/29 02:52:36;;;;;;;6.05;1.15;;;13.20;99.90;;;;;;5033515;28;20051;-25
2023/12/29 02:55:01;;;;;;;3.65;0.93;;;13.10;99.90;;;;;;5017813;28;20035;-27
2023/12/29 02:57:27;;;;;;;3.30;1.10;;;13.10;99.90;;;;;;5032555;28;20034;-27
2023/12/29 02:59:53;;;;;;;4.33;0.93;;;13.20;99.90;;;;;;5035977;28;20589;-23
2023/12/29 03:02:19;;;;;;;4.80;1.00;;;13.10;99.90;;;;;;5033947;28;20071;-30
2023/12/29 03:04:45;;;;;;;5.32;1.40;;;13.10;99.90;;;;;;5035778;28;20025;-24
2023/12/29 03:07:10;;;;;;;3.73;1.20;;;13.10;99.90;;;;;;5032203;28;20066;-23
2023/12/29 03:09:37;;;;;;;3.92;1.23;;;12.90;99.90;;;;;;5039311;28;20021;-24
2023/12/29 03:12:03;;;;;;;3.45;1.15;;;13.10;99.90;;;;;;5029630;28;20021;-23
2023/12/29 03:14:29;;;;;;;3.53;1.27;;;13.00;99.90;;;;;;5034912;28;20064;-23
2023/12/29 03:16:55;;;;;;;3.33;1.00;;;13.00;99.90;;;;;;5032983;28;20030;-23
2023/12/29 03:19:20;;;;;;;3.95;1.00;;;13.00;99.90;;;;;;5017732;28;20036;-24
2023/12/29 03:21:46;;;;;;;3.63;1.10;;;13.00;99.90;;;;;;5038268;28;20035;-24
2023/12/29 03:24:12;;;;;;;5.83;1.40;;;12.90;99.90;;;;;;5033100;28;20117;-28
2023/12/29 03:26:38;;;;;;;5.75;1.08;;;12.90;99.90;;;;;;5032149;28;20033;-24
2023/12/29 03:29:03;;;;;;;7.83;1.23;;;12.90;99.90;;;;;;5029468;28;20120;-24
2023/12/29 03:31:29;;;;;;;3.72;1.20;;;12.90;99.90;;;;;;5005611;28;20479;-23
2023/12/29 03:33:55;;;;;;;5.23;1.00;;;12.90;99.90;;;;;;5032907;28;20028;-27
2023/12/29 03:36:20;;;;;;;3.63;1.23;;;12.90;99.90;;;;;;5040916;28;20053;-24
2023/12/29 03:38:46;;;;;;;6.20;1.57;;;12.80;99.90;;;;;;5038308;28;20387;-25
2023/12/29 03:41:12;;;;;;;4.80;1.20;;;12.80;99.90;;;;;;5035786;28;20545;-28
2023/12/29 03:43:38;;;;;;;3.17;1.00;;;12.80;99.90;;;;;;5039750;28;20049;-25
2023/12/29 03:46:14;;;;;;;6.25;1.40;;;12.80;99.90;;;;;;5026541;28;20029;-24
2023/12/29 03:48:40;;;;;;;5.07;1.10;;;12.80;99.90;;;;;;5035577;28;20116;-24
2023/12/29 03:51:05;;;;;;;3.33;0.90;;;12.90;99.90;;;;;;5038729;28;20490;-23
2023/12/29 03:53:31;;;;;;;4.03;1.10;;;12.80;99.90;;;;;;5018093;28;20593;-22
2023/12/29 03:55:57;;;;;;;5.38;1.17;;;12.80;99.90;;;;;;5036745;28;20041;-27
2023/12/29 03:58:22;;;;;;;3.67;1.07;;;12.70;99.90;;;;;;5038459;28;20403;-26
2023/12/29 04:00:48;;;;;;;6.72;1.60;;;12.70;99.90;;;;;;5037568;28;21082;-26
2023/12/29 04:03:14;;;;;;;6.63;1.47;;;12.70;99.90;;;;;;5039513;28;20057;-25
2023/12/29 04:05:39;;;;;;;4.30;1.08;;;12.70;99.90;;;;;;5036081;28;20025;-24
2023/12/29 04:08:06;;;;;;;4.37;1.10;;;12.70;99.90;;;;;;5036869;28;20481;-26
2023/12/29 04:10:31;;;;;;;5.57;1.50;;;12.70;99.90;;;;;;5037506;28;20020;-27
2023/12/29 04:12:57;;;;;;;2.83;0.90;;;12.70;99.90;;;;;;5039766;28;20375;-26
2023/12/29 04:15:23;;;;;;;5.47;1.10;;;12.70;99.90;;;;;;5036835;28;20040;-23
2023/12/29 04:17:49;;;;;;;4.28;1.00;;;12.60;99.90;;;;;;5036100;28;20090;-27
2023/12/29 04:20:14;;;;;;;3.67;1.30;;;12.60;99.90;;;;;;5036177;28;20025;-24
2023/12/29 04:22:40;;;;;;;3.85;1.17;;;12.40;99.90;;;;;;5034320;28;20479;-24
2023/12/29 04:25:06;;;;;;;3.53;1.00;;;12.60;99.90;;;;;;5041557;28;20483;-28
2023/12/29 04:27:31;;;;;;;5.15;1.13;;;12.60;99.90;;;;;;5035145;28;20603;-24
2023/12/29 04:29:57;;;;;;;5.67;1.20;;;12.60;99.90;;;;;;5038480;28;20025;-26
2023/12/29 04:32:23;;;;;;;5.85;1.30;;;12.60;99.90;;;;;;5036070;28;20021;-24
2023/12/29 04:34:49;;;;;;;5.80;1.13;;;12.60;99.90;;;;;;5052934;28;20711;-25
2023/12/29 04:37:14;;;;;;;5.72;1.15;;;12.60;99.90;;;;;;5034932;28;20364;-24
2023/12/29 04:39:40;;;;;;;2.53;0.80;;;12.60;99.90;;;;;;5033370;28;20060;-24
2023/12/29 04:42:07;;;;;;;5.60;1.15;;;12.60;99.90;;;;;;5035028;28;20025;-23
2023/12/29 04:44:32;;;;;;;2.83;0.90;;;12.60;99.90;;;;;;5034233;28;20569;-27
2023/12/29 04:46:58;;;;;;;3.55;1.00;;;12.60;99.90;;;;;;5037295;28;20037;-25
2023/12/29 04:49:24;;;;;;;5.90;1.10;;;12.60;99.90;;;;;;5035941;28;20100;-23
2023/12/29 04:51:49;;;;;;;6.53;1.20;;;12.60;99.90;;;;;;5043146;28;20066;-23
2023/12/29 04:54:15;;;;;;;6.03;1.20;;;12.60;99.90;;;;;;5037700;28;20501;-25
2023/12/29 04:56:41;;;;;;;2.50;1.15;;;12.60;99.90;;;;;;5035583;28;20072;-23
2023/12/29 04:59:06;;;;;;;4.87;1.00;;;12.60;99.90;;;;;;5037330;28;20036;-24
2023/12/29 05:01:32;;;;;;;5.32;1.20;;;12.60;99.90;;;;;;5035353;28;20047;-28
2023/12/29 05:03:58;;;;;;;7.80;1.10;;;12.60;99.90;;;;;;5038102;28;20119;-24
2023/12/29 05:06:23;;;;;;;2.85;0.90;;;12.60;99.90;;;;;;5040622;28;20099;-24
2023/12/29 05:08:49;;;;;;;5.47;0.90;;;12.50;99.90;;;;;;5042723;28;20399;-26
2023/12/29 05:11:15;;;;;;;4.75;1.02;;;12.50;99.90;;;;;;5038343;28;20028;-22
2023/12/29 05:13:41;;;;;;;2.73;0.90;;;12.50;99.90;;;;;;5040502;28;20079;-26
2023/12/29 05:16:06;;;;;;;5.32;1.20;;;12.60;99.90;;;;;;5037109;28;20341;-25
2023/12/29 05:18:32;;;;;;;2.80;0.80;;;12.50;99.90;;;;;;5037374;28;20033;-24
2023/12/29 05:20:58;;;;;;;4.03;0.73;;;12.50;99.90;;;;;;5035999;28;20034;-24
2023/12/29 05:23:23;;;;;;;3.60;0.90;;;12.50;99.90;;;;;;5035254;28;20069;-23
2023/12/29 05:25:49;;;;;;;3.20;1.00;;;12.50;99.90;;;;;;5034572;28;20079;-24
2023/12/29 05:28:15;;;;;;;2.80;0.80;;;12.50;99.90;;;;;;5025743;28;20025;-22
2023/12/29 05:30:40;;;;;;;4.32;1.00;;;12.50;99.90;;;;;;5037634;28;20017;-22
2023/12/29 05:33:06;;;;;;;5.27;0.80;;;12.50;99.90;;;;;;5038487;28;20029;-25
2023/12/29 05:35:32;;;;;;;5.03;1.08;;;12.50;99.90;;;;;;5035915;28;20091;-23
2023/12/29 05:37:58;;;;;;;4.10;1.00;;;12.50;99.90;;;;;;5034293;28;20025;-24
2023/12/29 05:40:23;;;;;;;4.03;0.90;;;12.50;99.90;;;;;;5024637;28;20036;-23
2023/12/29 05:42:49;;;;;;;4.97;1.30;;;12.50;99.90;;;;;;5036457;28;20059;-25
2023/12/29 05:45:18;;;;;;;5.88;1.05;;;12.60;99.90;;;;;;5033418;28;20025;-24
2023/12/29 05:47:44;;;;;;;3.88;0.90;;;12.60;99.90;;;;;;5035489;28;20017;-27
2023/12/29 05:50:09;;;;;;;4.37;1.10;;;12.60;99.90;;;;;;5034361;28;20566;-23
2023/12/29 05:52:35;;;;;;;3.50;0.80;;;12.60;99.90;;;;;;5032680;28;20104;-22
2023/12/29 05:55:01;;;;;;;3.87;1.00;;;12.60;99.90;;;;;;5034785;28;20048;-24
2023/12/29 05:57:27;;;;;;;3.23;1.00;;;11.90;99.90;;;;;;5036123;28;20025;-22
2023/12/29 05:59:52;;;;;;;3.05;1.00;;;12.50;99.90;;;;;;5028744;28;20830;-22
2023/12/29 06:02:18;;;;;;;3.10;0.93;;;12.50;99.90;;;;;;5030839;28;20482;-22
2023/12/29 06:04:44;;;;;;;5.20;1.10;;;12.50;99.90;;;;;;5036854;28;20460;-22
2023/12/29 06:07:09;;;;;;;3.92;1.00;;;12.50;99.90;;;;;;5033259;28;20092;-23
2023/12/29 06:09:36;;;;;;;4.03;1.03;;;12.40;99.90;;;;;;5033842;28;20025;-25
2023/12/29 06:12:02;;;;;;;4.07;0.93;;;12.40;99.90;;;;;;5033710;28;20117;-25
2023/12/29 06:14:27;;;;;;;4.53;1.10;;;12.40;99.90;;;;;;5036703;28;20976;-21
2023/12/29 06:16:56;;;;;;;3.88;1.05;;;12.30;99.90;;;;;;5032723;28;20597;-24
2023/12/29 06:19:22;;;;;;;2.78;0.93;;;12.30;99.90;;;;;;5033613;28;20518;-22
2023/12/29 06:21:47;;;;;;;6.43;1.00;;;12.30;99.90;;;;;;5034495;28;20125;-25
2023/12/29 06:24:13;;;;;;;4.70;1.00;;;12.20;99.90;;;;;;5019067;28;20387;-20
2023/12/29 06:26:43;;;;;;;7.17;1.30;;;12.20;99.90;;;;;;5032542;28;20052;-19
2023/12/29 06:29:12;;;;;;;4.05;0.90;;;12.20;99.90;;;;;;5039513;28;20483;-19
2023/12/29 06:31:42;;;;;;;4.75;1.20;;;12.10;99.90;;;;;;5031831;28;20099;-20
2023/12/29 06:34:07;;;;;;;4.20;1.00;;;12.00;99.90;;;;;;5039061;28;20456;-19
2023/12/29 06:36:33;;;;;;;5.10;0.90;;;12.00;99.90;;;;;;5032211;28;20025;-18
2023/12/29 06:38:59;;;;;;;2.80;0.70;;;12.00;99.90;;;;;;4998648;28;20507;-20
2023/12/29 06:41:25;;;;;;;2.47;0.80;;;11.90;99.90;;;;;;5036800;28;20028;-19
2023/12/29 06:43:51;;;;;;;3.80;0.95;;;11.90;99.90;;;;;;5030938;28;20086;-19
2023/12/29 06:46:17;;;;;;;3.50;1.13;;;11.90;99.90;;;;;;5045432;28;20107;-19
2023/12/29 06:48:42;;;;;;;2.60;0.75;;;11.90;99.90;;;;;;5039974;28;20120;-19
2023/12/29 06:51:09;;;;;;;3.58;0.80;;;11.90;99.90;;;;;;5033187;28;20021;-20
2023/12/29 06:53:35;;;;;;;5.75;1.27;;;11.80;99.90;;;;;;5032546;28;20217;-19
2023/12/29 06:56:01;;;;;;;2.97;0.90;;;11.80;99.90;;;;;;5013625;28;20103;-19
2023/12/29 06:58:27;;;;;;;3.80;1.20;;;11.80;99.90;;;;;;5032814;28;20386;-19
2023/12/29 07:00:52;;;;;;;3.17;0.90;;;12.30;99.90;;;;;;5027284;28;20468;-19
2023/12/29 07:03:18;;;;;;;3.37;0.80;;;11.80;99.90;;;;;;5030651;28;20037;-20
2023/12/29 07:05:44;;;;;;;6.07;1.05;;;11.70;99.90;;;;;;5029561;28;20075;-19
2023/12/29 07:08:14;;;;;;;2.60;0.80;;;11.70;99.90;;;;;;5026843;28;20033;-19
2023/12/29 07:10:39;;;;;;;2.55;0.98;;;11.70;99.90;;;;;;5037055;28;20542;-20
2023/12/29 07:13:05;;;;;;;3.40;0.90;;;11.70;99.90;;;;;;5033467;28;20087;-20
2023/12/29 07:15:31;;;;;;;3.23;0.70;;;11.70;99.90;;;;;;5036493;28;20111;-19
2023/12/29 07:17:56;;;;;;;3.05;0.98;;;11.70;99.90;;;;;;5021113;28;20033;-20
2023/12/29 07:20:22;;;;;;;4.07;1.30;;;11.70;99.90;;;;;;5036659;28;20026;-17
2023/12/29 07:22:48;;;;;;;3.15;0.80;;;11.60;99.90;;;;;;5025820;28;20045;-17
2023/12/29 07:25:14;;;;;;;3.17;1.00;;;11.60;99.90;;;;;;5034714;28;20116;-18
2023/12/29 07:27:40;;;;;;;4.03;1.00;;;11.60;99.90;;;;;;5035702;28;20032;-14
2023/12/29 07:30:06;;;;;;;2.53;0.80;;;11.60;99.90;;;;;;5038703;28;20033;-15
2023/12/29 07:32:32;;;;;;;3.75;1.05;;;11.60;99.90;;;;;;5037851;28;20032;-16
2023/12/29 07:34:58;;;;;;;3.93;1.10;;;11.60;99.90;;;;;;5037660;28;20029;-15
2023/12/29 07:37:23;;;;;;;1.57;0.77;;;11.60;99.90;;;;;;5036716;28;20017;-15
2023/12/29 07:39:49;;;;;;;2.43;0.97;;;11.60;99.90;;;;;;5036009;28;20279;-15
2023/12/29 07:42:17;;;;;;;3.83;1.05;;;11.60;99.90;;;;;;5021648;28;20049;-15
2023/12/29 07:44:43;;;;;;;3.97;1.20;;;11.60;99.90;;;;;;5036221;28;20139;-16
2023/12/29 07:47:10;;;;;;;3.17;0.93;;;11.70;99.90;;;;;;5034381;28;20033;-15
2023/12/29 07:49:36;;;;;;;2.63;0.80;;;11.70;99.90;;;;;;5039226;28;20035;-16
2023/12/29 07:52:01;;;;;;;1.95;0.70;;;11.70;99.90;;;;;;5034016;28;20115;-15
2023/12/29 07:54:27;;;;;;;4.77;1.00;;;11.70;99.90;;;;;;5035348;28;20029;-15
2023/12/29 07:56:53;;;;;;;2.92;0.80;;;11.70;99.90;;;;;;5033744;28;20033;-15
2023/12/29 07:59:19;;;;;;;2.43;0.60;;;11.70;99.90;;;;;;5036918;28;20017;-15
2023/12/29 08:01:44;;;;;;;1.08;0.57;;;11.70;99.90;;;;;;5038227;28;20092;-16
2023/12/29 08:04:10;;;;;;;3.00;0.80;;;11.70;99.90;;;;;;5039099;28;20599;-16
2023/12/29 08:06:39;;;;;;;2.78;0.60;;;11.70;99.90;;;;;;5018140;28;20384;-19
2023/12/29 08:09:06;;;;;;;3.15;1.02;;;11.70;99.90;;;;;;5036145;28;20398;-17
2023/12/29 08:11:32;;;;;;;3.30;1.00;;;11.70;99.90;;;;;;5042880;28;20472;-15
2023/12/29 08:13:58;;;;;;;3.15;0.82;;;11.70;99.90;;;;;;5023433;28;20029;-16
2023/12/29 08:16:24;;;;;;;3.77;0.80;;;11.70;99.90;;;;;;5035030;28;20033;-17
2023/12/29 08:18:49;;;;;;;2.03;0.80;;;11.80;99.90;;;;;;5035955;28;20348;-15
2023/12/29 08:21:21;;;;;;;3.22;0.90;;;11.70;99.90;;;;;;5035888;28;20159;-16
2023/12/29 08:23:48;;;;;;;3.63;0.90;;;11.70;99.90;;;;;;5042056;28;21065;-16
2023/12/29 08:26:14;;;;;;;2.33;0.70;;;11.70;99.90;;;;;;5035502;28;20679;-16
2023/12/29 08:28:40;;;;;;;1.63;0.60;;;11.70;99.90;;;;;;5038139;28;20428;-16
2023/12/29 08:31:07;;;;;;;2.05;0.60;;;11.70;99.90;;;;;;5007039;28;20025;-16
2023/12/29 08:33:33;;;;;;;2.50;0.73;;;11.70;99.90;;;;;;5037306;28;20066;-16
2023/12/29 08:36:01;;;;;;;2.37;0.60;;;11.70;99.90;;;;;;5036408;28;20684;-16
2023/12/29 08:38:27;;;;;;;2.78;0.75;;;11.70;99.90;;;;;;5022385;28;20041;-16
2023/12/29 08:40:53;;;;;;;1.23;0.57;;;11.80;99.90;;;;;;5037373;28;20025;-16
2023/12/29 08:43:21;;;;;;;2.17;0.70;;;11.70;99.90;;;;;;5024309;28;20337;-16
2023/12/29 08:45:47;;;;;;;1.48;0.60;;;11.70;99.90;;;;;;5035416;28;20499;-16
2023/12/29 08:48:13;;;;;;;1.92;0.90;;;11.80;99.90;;;;;;5036490;28;20045;-16
2023/12/29 08:50:39;;;;;;;2.63;0.80;;;11.80;99.90;;;;;;5038152;28;20494;-16
2023/12/29 08:53:05;;;;;;;3.73;0.73;;;11.80;99.90;;;;;;5036079;28;20287;-16
2023/12/29 08:55:31;;;;;;;2.05;0.80;;;11.80;99.90;;;;;;5035162;28;20440;-16
2023/12/29 08:57:57;;;;;;;2.00;0.70;;;11.80;99.90;;;;;;5037122;28;20041;-17
2023/12/29 09:00:23;;;;;;;1.00;0.50;;;11.70;99.90;;;;;;5033396;28;20132;-16
2023/12/29 09:02:49;;;;;;;0.52;0.50;;;11.70;99.90;;;;;;5038455;28;20080;-16
2023/12/29 09:05:14;;;;;;;2.20;0.73;;;11.70;99.90;;;;;;5034820;28;20160;-17
2023/12/29 09:07:40;;;;;;;1.20;0.50;;;11.70;99.90;;;;;;5036344;28;20017;-17
2023/12/29 09:10:12;;;;;;;1.00;0.55;;;11.70;99.90;;;;;;5023749;28;20558;-17
2023/12/29 09:12:38;;;;;;;1.47;0.57;;;11.70;99.90;;;;;;5018396;28;20486;-17
2023/12/29 09:15:05;;;;;;;1.83;0.70;;;11.70;99.90;;;;;;5033584;28;20013;-17
2023/12/29 09:17:31;;;;;;;1.60;0.60;;;11.70;99.90;;;;;;5035104;28;20025;-17
2023/12/29 09:19:57;;;;;;;1.80;0.97;;;11.70;99.90;;;;;;5032771;28;20040;-16
2023/12/29 09:22:23;;;;;;;4.18;1.58;;;11.70;99.90;;;;;;5034185;28;20034;-17
2023/12/29 09:24:49;;;;;;;2.05;0.90;;;11.70;99.90;;;;;;5030998;28;20029;-16
2023/12/29 09:27:14;;;;;;;4.83;1.30;;;11.70;99.90;;;;;;5017544;28;20383;-19
2023/12/29 09:29:41;;;;;;;6.07;1.45;;;11.80;99.90;;;;;;5035841;28;20078;-17
2023/12/29 09:32:07;;;;;;;3.05;1.33;;;11.90;99.90;;;;;;5033856;28;20109;-17
2023/12/29 09:34:33;;;;;;;2.57;0.90;;;11.90;99.90;;;;;;5036708;28;20032;-16
2023/12/29 09:36:58;;;;;;;2.47;0.90;;;12.00;99.90;;;;;;5033757;28;20047;-16
2023/12/29 09:39:24;;;;;;;1.53;0.80;;;12.10;99.90;;;;;;5034100;28;20029;-17
2023/12/29 09:41:54;;;;;;;2.42;0.70;;;12.20;99.90;;;;;;5024030;28;20041;-17
2023/12/29 09:44:20;;;;;;;1.35;0.88;;;12.20;99.90;;;;;;5035357;28;20406;-17
2023/12/29 09:46:54;;;;;;;1.70;0.80;;;12.30;99.90;;;;;;5035440;28;20392;-16
2023/12/29 09:49:20;;;;;;;3.17;0.90;;;12.30;99.90;;;;;;5035923;28;20032;-25
2023/12/29 09:51:48;;;;;;;2.85;0.90;;;12.40;99.90;;;;;;5035791;28;20033;-22
2023/12/29 09:54:15;;;;;;;2.15;0.63;;;12.40;99.90;;;;;;5040837;28;20663;-23
2023/12/29 09:56:41;;;;;;;3.67;1.05;;;12.50;99.90;;;;;;5033293;28;20012;-20
2023/12/29 09:59:11;;;;;;;1.90;0.73;;;12.50;99.90;;;;;;5035058;28;20541;-23
2023/12/29 10:01:38;;;;;;;1.33;0.57;;;12.50;99.90;;;;;;5032701;28;20076;-22
2023/12/29 10:04:04;;;;;;;2.92;0.80;;;12.50;99.90;;;;;;5035667;28;20033;-22
2023/12/29 10:06:36;;;;;;;2.33;0.95;;;11.90;99.90;;;;;;5027970;28;20103;-20
2023/12/29 10:09:05;;;;;;;1.92;0.60;;;12.60;99.90;;;;;;5038299;28;20206;-20
2023/12/29 10:11:35;;;;;;;2.28;0.80;;;12.60;99.90;;;;;;5033459;28;20499;-20
2023/12/29 10:14:19;;;;;;;1.40;0.60;;;12.60;99.90;;;;;;5039480;28;20037;-20
2023/12/29 10:16:58;;;;;;;1.08;0.60;;;12.50;99.90;;;;;;5024314;28;20427;-22
2023/12/29 10:19:36;;;;;;;1.60;0.47;;;12.50;99.90;;;;;;5042469;28;20030;-23
2023/12/29 10:22:35;;;;;;;1.30;0.60;;;12.40;99.90;;;;;;5034891;28;20044;-24
2023/12/29 10:25:01;;;;;;;2.58;1.30;;;12.40;99.90;;;;;;5031119;28;20072;-23
2023/12/29 10:27:27;;;;;;;1.23;0.40;;;12.30;99.90;;;;;;5032745;28;20034;-24
2023/12/29 10:29:52;;;;;;;1.63;0.50;;;12.30;99.90;;;;;;5050506;28;20037;-21
2023/12/29 10:32:18;;;;;;;1.48;0.50;;;12.30;99.90;;;;;;5040804;28;20372;-20
2023/12/29 10:34:44;;;;;;;1.23;0.50;;;12.20;99.90;;;;;;5037326;28;20483;-23
2023/12/29 10:37:14;;;;;;;2.15;0.60;;;12.20;99.90;;;;;;5042497;28;20399;-24
2023/12/29 10:39:55;;;;;;;1.33;0.73;;;12.10;99.90;;;;;;5039949;28;20069;-22
2023/12/29 10:42:21;;;;;;;2.97;0.70;;;12.10;99.90;;;;;;5032880;28;20032;-20
2023/12/29 10:44:47;;;;;;;2.00;0.80;;;12.10;99.90;;;;;;5031545;28;20041;-23
2023/12/29 10:47:14;;;;;;;1.50;0.60;;;12.10;99.90;;;;;;5029322;28;20112;-20
2023/12/29 10:49:41;;;;;;;2.25;1.00;;;12.10;99.90;;;;;;5038017;28;20380;-23
2023/12/29 10:52:16;;;;;;;1.90;0.90;;;12.10;99.90;;;;;;5033375;28;20029;-22
2023/12/29 10:54:45;;;;;;;2.25;0.90;;;12.20;99.90;;;;;;5036980;28;20051;-23
2023/12/29 10:57:12;;;;;;;2.13;0.80;;;12.20;99.90;;;;;;5036315;28;20634;-24
2023/12/29 10:59:39;;;;;;;1.98;0.80;;;12.20;99.90;;;;;;5038850;28;20022;-17
2023/12/29 11:02:08;;;;;;;4.32;1.00;;;12.30;99.90;;;;;;5040301;28;20515;-17
2023/12/29 11:04:34;;;;;;;3.90;1.20;;;12.30;99.90;;;;;;5035953;28;20121;-17
2023/12/29 11:06:59;;;;;;;2.92;1.15;;;12.30;99.90;;;;;;5040114;28;20064;-18
2023/12/29 11:09:29;;;;;;;3.43;1.20;;;12.40;99.90;;;;;;5026660;28;20529;-25
2023/12/29 11:12:01;;;;;;;4.53;1.20;;;12.50;99.90;;;;;;5037762;28;20049;-24
2023/12/29 11:14:30;;;;;;;4.93;1.33;;;12.50;99.90;;;;;;5035881;28;20119;-23
2023/12/29 11:16:56;;;;;;;3.07;1.10;;;12.50;99.90;;;;;;5036384;28;20033;-24
2023/12/29 11:19:22;;;;;;;2.90;1.00;;;12.60;99.90;;;;;;5036041;28;20039;-23
2023/12/29 11:21:56;;;;;;;2.55;1.02;;;12.70;99.90;;;;;;5022030;28;20045;-24
2023/12/29 11:24:22;;;;;;;1.95;0.70;;;12.70;99.90;;;;;;5043334;28;20029;-23
2023/12/29 11:26:52;;;;;;;2.57;0.80;;;12.80;99.90;;;;;;5035009;28;20570;-24
2023/12/29 11:29:18;;;;;;;2.60;0.90;;;12.80;99.90;;;;;;5038042;28;20700;-25
2023/12/29 11:31:46;;;;;;;4.40;1.00;;;12.90;99.90;;;;;;5038713;28;20202;-22
2023/12/29 11:34:41;;;;;;;3.72;1.20;;;12.90;99.90;;;;;;5034121;28;20402;-22
2023/12/29 11:37:49;;;;;;;6.23;1.40;;;12.90;99.90;;;;;;5027547;28;20029;-21
2023/12/29 11:40:28;;;;;;;5.10;1.30;;;12.90;99.90;;;;;;5027944;28;20483;-21
2023/12/29 11:42:57;;;;;;;3.22;0.90;;;12.90;99.90;;;;;;5035889;28;20803;-24
2023/12/29 11:45:37;;;;;;;3.63;1.00;;;13.00;99.90;;;;;;5035720;28;20021;-22
2023/12/29 11:48:03;;;;;;;2.65;1.23;;;13.00;99.90;;;;;;5037485;28;20033;-23
2023/12/29 11:50:30;;;;;;;3.93;1.20;;;13.00;99.90;;;;;;5036381;28;20029;-23
2023/12/29 11:52:56;;;;;;;2.65;0.80;;;13.00;99.90;;;;;;5037718;28;20413;-23
2023/12/29 11:55:32;;;;;;;3.80;1.20;;;13.00;99.90;;;;;;5034395;28;20033;-25
2023/12/29 11:57:59;;;;;;;3.40;0.93;;;13.00;99.90;;;;;;5034250;28;20040;-20
2023/12/29 12:00:42;;;;;;;4.63;1.23;;;13.10;99.90;;;;;;5049022;28;20045;-20
2023/12/29 12:03:15;;;;;;;2.10;0.80;;;13.00;99.90;;;;;;5035232;28;20044;-26
2023/12/29 12:05:48;;;;;;;2.80;1.33;;;13.00;99.90;;;;;;5042067;28;20394;-21
2023/12/29 12:08:39;;;;;;;3.65;1.00;;;13.00;99.90;;;;;;5034913;28;20032;-17
2023/12/29 12:11:30;;;;;;;1.88;0.80;;;13.00;99.90;;;;;;5052287;28;20078;-17
2023/12/29 12:13:56;;;;;;;4.07;1.20;;;12.90;99.90;;;;;;5037518;28;20065;-18
2023/12/29 12:16:42;;;;;;;5.83;0.90;;;12.90;99.90;;;;;;5039009;28;20466;-18
2023/12/29 12:19:09;;;;;;;2.35;1.02;;;12.90;99.90;;;;;;5035791;28;20116;-16
2023/12/29 12:21:36;;;;;;;2.22;0.93;;;12.80;99.90;;;;;;5034535;28;20034;-16
2023/12/29 12:24:04;;;;;;;2.58;0.80;;;12.80;99.90;;;;;;5035353;28;20045;-16
2023/12/29 12:26:34;;;;;;;1.90;0.70;;;12.80;99.90;;;;;;5024206;28;20032;-18
2023/12/29 12:29:01;;;;;;;4.30;0.90;;;12.80;99.90;;;;;;5035644;28;20022;-18
2023/12/29 12:31:29;;;;;;;1.13;0.70;;;12.70;99.90;;;;;;5036354;28;20108;-16
2023/12/29 12:33:56;;;;;;;2.47;0.70;;;12.70;99.90;;;;;;5035422;28;20052;-16
2023/12/29 12:36:23;;;;;;;2.17;1.00;;;12.70;99.90;;;;;;5033366;28;20021;-17
2023/12/29 12:38:53;;;;;;;2.07;1.00;;;12.60;99.90;;;;;;5034295;28;20116;-17
2023/12/29 12:41:20;;;;;;;3.80;0.95;;;12.60;99.90;;;;;;5035517;28;20068;-17
2023/12/29 12:43:53;;;;;;;3.35;1.15;;;12.60;99.90;;;;;;5039067;28;20037;-16
2023/12/29 12:46:24;;;;;;;1.63;1.00;;;12.60;99.90;;;;;;5036980;28;20017;-17
2023/12/29 12:48:50;;;;;;;2.92;0.80;;;12.50;99.90;;;;;;5034460;28;20036;-16